F/V Attalaya Berria — FHCB — position and weather

sailwx.info

Track history (hours):
 
Tides and Currents Weather Stations Pressure Air Temp Water Temp Dewpoint Dewpoint Depression Visibility Wind Speed Wind Dir Waves Ship Positions

F/V Attalaya Berria

Last reported at 2015-Sep-03 21:28 UTC. Time now 2015-Sep-05 14:22 UTC.
Position N 43°22' W 001°47'.

Length 26 m.

Type: Fishing. MMSI: 228315000.

Date/timePositionNaut miles runAvg speedWind from/ knotsBaromVisibWave heightAir tempDewpointWater temp
2015-Sep-03 21:28N 43°22' W 001°47'1 1.3
2015-Sep-03 20:34N 43°23' W 001°47'6 5.5
2015-Sep-03 19:33N 43°23' W 001°40'2 1.9
2015-Sep-03 18:33N 43°25' W 001°41'3 3.1
2015-Sep-03 17:33N 43°28' W 001°42'1 0.6
2015-Sep-03 16:33N 43°28' W 001°42'6 6.3
2015-Sep-03 15:33N 43°34' W 001°40'2 0.1
2015-Sep-02 05:33N 43°35' W 001°43'10 9.5
2015-Sep-02 04:31N 43°26' W 001°46'3 2.8
2015-Sep-02 03:33N 43°23' W 001°47'0 0.3
2015-Sep-02 02:33N 43°23' W 001°47'0 0.1
2015-Sep-02 01:33N 43°23' W 001°47'0 0.0
2015-Sep-02 00:34N 43°23' W 001°47'0 0.0
2015-Sep-01 23:33N 43°23' W 001°47'0 0.0
2015-Sep-01 22:33N 43°23' W 001°47'0 0.0
2015-Sep-01 21:34N 43°23' W 001°47'0 0.0
2015-Sep-01 20:33N 43°23' W 001°47'0 0.1
2015-Sep-01 19:34N 43°23' W 001°47'1 0.8
2015-Sep-01 18:33N 43°24' W 001°46'5 4.8
2015-Sep-01 17:33N 43°23' W 001°40'2 1.8
2015-Sep-01 16:34N 43°24' W 001°42'4 0.4
2015-Sep-01 04:28N 43°23' W 001°47'0 0.1
2015-Sep-01 03:33N 43°23' W 001°47'0 0.3
2015-Sep-01 02:33N 43°23' W 001°47'0 0.0
2015-Sep-01 01:33N 43°23' W 001°47'0 0.0
2015-Sep-01 00:33N 43°23' W 001°47'0 0.0
2015-Aug-31 23:33N 43°23' W 001°47'0 0.1
2015-Aug-31 22:34N 43°23' W 001°47'0 0.0
2015-Aug-31 21:34N 43°23' W 001°47'0 0.0
2015-Aug-31 20:34N 43°23' W 001°47'0 0.0
2015-Aug-31 19:33N 43°23' W 001°47'0 0.3
2015-Aug-31 18:31N 43°23' W 001°47'6 6.0
2015-Aug-31 17:29N 43°29' W 001°48'9 8.0
2015-Aug-31 16:25N 43°38' W 001°45'10 5.2
2015-Aug-31 14:33N 43°43' W 001°33'3 3.0
2015-Aug-31 13:33N 43°42' W 001°37'4 0.9
2015-Aug-31 09:05N 43°39' W 001°40'2 3.8
2015-Aug-31 08:33N 43°37' W 001°42'6 6.0
2015-Aug-31 07:28N 43°31' W 001°44'8 9.0
2015-Aug-31 06:33N 43°23' W 001°47'0 0.0
2015-Aug-31 05:33N 43°23' W 001°47'0 0.1
2015-Aug-31 04:33N 43°23' W 001°48'1 0.8
2015-Aug-31 03:34N 43°23' W 001°47'1 0.5
2015-Aug-31 02:33N 43°23' W 001°47'0 0.4
2015-Aug-31 01:33N 43°23' W 001°47'0 0.4
2015-Aug-31 00:33N 43°23' W 001°47'0 0.4
2015-Aug-30 23:34N 43°23' W 001°47'0 0.0
2015-Aug-30 22:33N 43°23' W 001°47'0 0.0
2015-Aug-30 21:33N 43°23' W 001°47'0 0.0
2015-Aug-30 20:34N 43°23' W 001°47'0 0.0
2015-Aug-30 19:33N 43°23' W 001°47'0 0.3
2015-Aug-30 18:33N 43°23' W 001°47'0 0.0
2015-Aug-30 17:33N 43°23' W 001°47'0 0.0
2015-Aug-30 16:33N 43°23' W 001°47'0 0.0
2015-Aug-30 15:33N 43°23' W 001°47'0 0.0
2015-Aug-30 14:34N 43°23' W 001°47'0 0.0
2015-Aug-30 13:34N 43°23' W 001°47'0 0.0
2015-Aug-30 12:34N 43°23' W 001°47'0 0.0
2015-Aug-30 11:33N 43°23' W 001°47'0 0.0
2015-Aug-30 10:34N 43°23' W 001°47'0 0.0
2015-Aug-30 09:34N 43°23' W 001°47'0 0.0
2015-Aug-30 08:33N 43°23' W 001°47'0 0.0
2015-Aug-30 07:33N 43°23' W 001°47'0 0.0
2015-Aug-30 06:33N 43°23' W 001°47'4 4.1
2015-Aug-30 05:33N 43°26' W 001°43'9 9.0
2015-Aug-30 04:34N 43°33' W 001°36'7 0.6
2015-Aug-29 17:25N 43°41' W 001°38'1 1.3
2015-Aug-29 16:33N 43°41' W 001°37'14 4.4
2015-Aug-29 13:25N 43°34' W 001°53'7 8.4
2015-Aug-29 12:34N 43°32' W 002°03'8 8.2
2015-Aug-29 11:33N 43°29' W 002°13'20 0.6
2015-Aug-28 04:33N 43°23' W 001°47'0 0.2
2015-Aug-28 03:33N 43°23' W 001°47'0 0.2
2015-Aug-28 02:33N 43°23' W 001°47'0 0.1
2015-Aug-28 01:33N 43°23' W 001°47'0 0.2
2015-Aug-28 00:33N 43°23' W 001°47'0 0.2
2015-Aug-27 23:33N 43°23' W 001°47'0 0.0
2015-Aug-27 22:33N 43°23' W 001°47'0 0.0
2015-Aug-27 21:33N 43°23' W 001°47'0 0.0
2015-Aug-27 20:33N 43°23' W 001°47'0 0.3
2015-Aug-27 19:33N 43°23' W 001°47'0 0.0
2015-Aug-27 18:33N 43°23' W 001°47'0 0.0
2015-Aug-27 17:33N 43°23' W 001°47'0 0.0
2015-Aug-27 16:33N 43°23' W 001°47'1 1.3
2015-Aug-27 15:31N 43°24' W 001°46'4 4.6
2015-Aug-27 14:33N 43°23' W 001°40'2 2.2
2015-Aug-27 13:33N 43°25' W 001°42'9 9.1
2015-Aug-27 12:33N 43°28' W 001°54'8 0.2
2015-Aug-26 05:30N 43°35' W 001°56'0 0.4
2015-Aug-26 04:32N 43°35' W 001°57'1 0.5
2015-Aug-26 03:33N 43°35' W 001°57'1 0.5
2015-Aug-26 02:33N 43°34' W 001°58'15 3.7
2015-Aug-25 22:34N 43°25' W 001°42'2 2.3
2015-Aug-25 21:34N 43°23' W 001°40'6 6.1
2015-Aug-25 20:32N 43°27' W 001°46'3 0.2
2015-Aug-25 05:19N 43°24' W 001°47'1 1.4
2015-Aug-25 04:33N 43°23' W 001°47'0 0.0
2015-Aug-25 03:33N 43°23' W 001°47'0 0.0
2015-Aug-25 02:33N 43°23' W 001°47'0 0.0
2015-Aug-25 01:34N 43°23' W 001°47'0 0.0
2015-Aug-25 00:34N 43°23' W 001°47'0 0.0
2015-Aug-24 23:33N 43°23' W 001°47'0 0.0
2015-Aug-24 22:34N 43°23' W 001°47'0 0.0
2015-Aug-24 21:34N 43°23' W 001°47'  
Track history (hours):
 
Tides and Currents Weather Stations Pressure Air Temp Water Temp Dewpoint Dewpoint Depression Visibility Wind Speed Wind Dir Waves Ship Positions

F/V Attalaya Berria

Last reported at 2015-Sep-03 21:28 UTC. Time now 2015-Sep-05 14:22 UTC.
Position N 43°22' W 001°47'.

Length 26 m.

Type: Fishing. MMSI: 228315000.

Date/timePositionNaut miles runAvg speedWind from/ knotsBaromVisibWave heightAir tempDewpointWater temp
2015-Sep-03 21:28N 43°22' W 001°47'1 1.3
2015-Sep-03 20:34N 43°23' W 001°47'6 5.5
2015-Sep-03 19:33N 43°23' W 001°40'2 1.9
2015-Sep-03 18:33N 43°25' W 001°41'3 3.1
2015-Sep-03 17:33N 43°28' W 001°42'1 0.6
2015-Sep-03 16:33N 43°28' W 001°42'6 6.3
2015-Sep-03 15:33N 43°34' W 001°40'2 0.1
2015-Sep-02 05:33N 43°35' W 001°43'10 9.5
2015-Sep-02 04:31N 43°26' W 001°46'3 2.8
2015-Sep-02 03:33N 43°23' W 001°47'0 0.3
2015-Sep-02 02:33N 43°23' W 001°47'0 0.1
2015-Sep-02 01:33N 43°23' W 001°47'0 0.0
2015-Sep-02 00:34N 43°23' W 001°47'0 0.0
2015-Sep-01 23:33N 43°23' W 001°47'0 0.0
2015-Sep-01 22:33N 43°23' W 001°47'0 0.0
2015-Sep-01 21:34N 43°23' W 001°47'0 0.0
2015-Sep-01 20:33N 43°23' W 001°47'0 0.1
2015-Sep-01 19:34N 43°23' W 001°47'1 0.8
2015-Sep-01 18:33N 43°24' W 001°46'5 4.8
2015-Sep-01 17:33N 43°23' W 001°40'2 1.8
2015-Sep-01 16:34N 43°24' W 001°42'4 0.4
2015-Sep-01 04:28N 43°23' W 001°47'0 0.1
2015-Sep-01 03:33N 43°23' W 001°47'0 0.3
2015-Sep-01 02:33N 43°23' W 001°47'0 0.0
2015-Sep-01 01:33N 43°23' W 001°47'0 0.0
2015-Sep-01 00:33N 43°23' W 001°47'0 0.0
2015-Aug-31 23:33N 43°23' W 001°47'0 0.1
2015-Aug-31 22:34N 43°23' W 001°47'0 0.0
2015-Aug-31 21:34N 43°23' W 001°47'0 0.0
2015-Aug-31 20:34N 43°23' W 001°47'0 0.0
2015-Aug-31 19:33N 43°23' W 001°47'0 0.3
2015-Aug-31 18:31N 43°23' W 001°47'6 6.0
2015-Aug-31 17:29N 43°29' W 001°48'9 8.0
2015-Aug-31 16:25N 43°38' W 001°45'10 5.2
2015-Aug-31 14:33N 43°43' W 001°33'3 3.0
2015-Aug-31 13:33N 43°42' W 001°37'4 0.9
2015-Aug-31 09:05N 43°39' W 001°40'2 3.8
2015-Aug-31 08:33N 43°37' W 001°42'6 6.0
2015-Aug-31 07:28N 43°31' W 001°44'8 9.0
2015-Aug-31 06:33N 43°23' W 001°47'0 0.0
2015-Aug-31 05:33N 43°23' W 001°47'0 0.1
2015-Aug-31 04:33N 43°23' W 001°48'1 0.8
2015-Aug-31 03:34N 43°23' W 001°47'1 0.5
2015-Aug-31 02:33N 43°23' W 001°47'0 0.4
2015-Aug-31 01:33N 43°23' W 001°47'0 0.4
2015-Aug-31 00:33N 43°23' W 001°47'0 0.4
2015-Aug-30 23:34N 43°23' W 001°47'0 0.0
2015-Aug-30 22:33N 43°23' W 001°47'0 0.0
2015-Aug-30 21:33N 43°23' W 001°47'0 0.0
2015-Aug-30 20:34N 43°23' W 001°47'0 0.0
2015-Aug-30 19:33N 43°23' W 001°47'0 0.3
2015-Aug-30 18:33N 43°23' W 001°47'0 0.0
2015-Aug-30 17:33N 43°23' W 001°47'0 0.0
2015-Aug-30 16:33N 43°23' W 001°47'0 0.0
2015-Aug-30 15:33N 43°23' W 001°47'0 0.0
2015-Aug-30 14:34N 43°23' W 001°47'0 0.0
2015-Aug-30 13:34N 43°23' W 001°47'0 0.0
2015-Aug-30 12:34N 43°23' W 001°47'0 0.0
2015-Aug-30 11:33N 43°23' W 001°47'0 0.0
2015-Aug-30 10:34N 43°23' W 001°47'0 0.0
2015-Aug-30 09:34N 43°23' W 001°47'0 0.0
2015-Aug-30 08:33N 43°23' W 001°47'0 0.0
2015-Aug-30 07:33N 43°23' W 001°47'0 0.0
2015-Aug-30 06:33N 43°23' W 001°47'4 4.1
2015-Aug-30 05:33N 43°26' W 001°43'9 9.0
2015-Aug-30 04:34N 43°33' W 001°36'7 0.6
2015-Aug-29 17:25N 43°41' W 001°38'1 1.3
2015-Aug-29 16:33N 43°41' W 001°37'14 4.4
2015-Aug-29 13:25N 43°34' W 001°53'7 8.4
2015-Aug-29 12:34N 43°32' W 002°03'8 8.2
2015-Aug-29 11:33N 43°29' W 002°13'20 0.6
2015-Aug-28 04:33N 43°23' W 001°47'0 0.2
2015-Aug-28 03:33N 43°23' W 001°47'0 0.2
2015-Aug-28 02:33N 43°23' W 001°47'0 0.1
2015-Aug-28 01:33N 43°23' W 001°47'0 0.2
2015-Aug-28 00:33N 43°23' W 001°47'0 0.2
2015-Aug-27 23:33N 43°23' W 001°47'0 0.0
2015-Aug-27 22:33N 43°23' W 001°47'0 0.0
2015-Aug-27 21:33N 43°23' W 001°47'0 0.0
2015-Aug-27 20:33N 43°23' W 001°47'0 0.3
2015-Aug-27 19:33N 43°23' W 001°47'0 0.0
2015-Aug-27 18:33N 43°23' W 001°47'0 0.0
2015-Aug-27 17:33N 43°23' W 001°47'0 0.0
2015-Aug-27 16:33N 43°23' W 001°47'1 1.3
2015-Aug-27 15:31N 43°24' W 001°46'4 4.6
2015-Aug-27 14:33N 43°23' W 001°40'2 2.2
2015-Aug-27 13:33N 43°25' W 001°42'9 9.1
2015-Aug-27 12:33N 43°28' W 001°54'8 0.2
2015-Aug-26 05:30N 43°35' W 001°56'0 0.4
2015-Aug-26 04:32N 43°35' W 001°57'1 0.5
2015-Aug-26 03:33N 43°35' W 001°57'1 0.5
2015-Aug-26 02:33N 43°34' W 001°58'15 3.7
2015-Aug-25 22:34N 43°25' W 001°42'2 2.3
2015-Aug-25 21:34N 43°23' W 001°40'6 6.1
2015-Aug-25 20:32N 43°27' W 001°46'3 0.2
2015-Aug-25 05:19N 43°24' W 001°47'1 1.4
2015-Aug-25 04:33N 43°23' W 001°47'0 0.0
2015-Aug-25 03:33N 43°23' W 001°47'0 0.0
2015-Aug-25 02:33N 43°23' W 001°47'0 0.0
2015-Aug-25 01:34N 43°23' W 001°47'0 0.0
2015-Aug-25 00:34N 43°23' W 001°47'0 0.0
2015-Aug-24 23:33N 43°23' W 001°47'0 0.0
2015-Aug-24 22:34N 43°23' W 001°47'0 0.0
2015-Aug-24 21:34N 43°23' W 001°47'  

Dump ship's entire track history